Time;durP1;ratioP1;P1;durP2;ratioP2;P2;SDS_P1;SDS_P2;PMS_P1;PMS_P2;Temp;Humidity;BMP_temperature;BMP_pressure;BME280_temperature;BME280_humidity;BME280_pressure;Samples;Min_cycle;Max_cycle;Signal;HPM_P1;HPM_P2
2021/05/22 00:00:10;;;;;;;2.10;1.23;;;22.10;52.40;;;;;;5116906;27;20052;-39
2021/05/22 00:02:38;;;;;;;1.67;1.10;;;22.10;52.40;;;;;;5115577;28;20498;-37
2021/05/22 00:05:06;;;;;;;2.22;1.35;;;22.10;52.40;;;;;;5129866;27;20078;-37
2021/05/22 00:07:34;;;;;;;1.67;1.20;;;22.10;52.40;;;;;;5132894;27;20125;-38
2021/05/22 00:10:04;;;;;;;1.85;1.40;;;22.10;52.40;;;;;;5115878;27;20051;-38
2021/05/22 00:12:31;;;;;;;4.32;1.20;;;22.10;52.40;;;;;;5121776;27;20052;-39
2021/05/22 00:14:59;;;;;;;2.33;1.27;;;22.10;52.40;;;;;;5115588;28;20051;-37
2021/05/22 00:17:26;;;;;;;3.15;1.08;;;22.10;52.40;;;;;;5126794;27;20055;-37
2021/05/22 00:19:54;;;;;;;1.77;1.00;;;22.10;52.40;;;;;;5124033;27;20044;-38
2021/05/22 00:22:21;;;;;;;3.33;1.13;;;22.00;52.30;;;;;;5123755;27;20040;-39
2021/05/22 00:24:48;;;;;;;2.78;1.40;;;22.00;52.30;;;;;;5125779;27;20044;-38
2021/05/22 00:27:16;;;;;;;1.55;1.20;;;22.00;52.30;;;;;;5116849;27;20047;-37
2021/05/22 00:29:43;;;;;;;1.90;1.20;;;22.10;52.40;;;;;;5114639;28;20047;-38
2021/05/22 00:32:10;;;;;;;1.85;1.20;;;22.10;52.40;;;;;;5116589;27;20431;-37
2021/05/22 00:34:37;;;;;;;2.38;1.23;;;22.00;52.30;;;;;;5118694;27;20136;-39
2021/05/22 00:37:04;;;;;;;2.47;1.20;;;22.00;52.30;;;;;;5129175;27;20047;-38
2021/05/22 00:39:31;;;;;;;2.78;1.20;;;22.10;52.40;;;;;;5116403;27;20386;-38
2021/05/22 00:42:03;;;;;;;2.15;1.13;;;22.00;52.30;;;;;;5121202;27;20052;-38
2021/05/22 00:44:32;;;;;;;2.80;1.17;;;22.00;52.30;;;;;;5116495;27;20039;-38
2021/05/22 00:47:00;;;;;;;1.73;1.10;;;22.00;52.30;;;;;;5117224;27;20491;-39
2021/05/22 00:49:28;;;;;;;1.80;1.20;;;22.10;52.40;;;;;;5130644;27;20047;-39
2021/05/22 00:51:56;;;;;;;2.75;1.40;;;22.00;52.30;;;;;;5134707;27;20055;-38
2021/05/22 00:54:23;;;;;;;2.80;1.20;;;22.00;52.30;;;;;;5115757;27;20096;-37
2021/05/22 00:56:50;;;;;;;4.88;1.20;;;22.10;52.40;;;;;;5115272;27;20150;-38
2021/05/22 00:59:18;;;;;;;1.90;1.30;;;22.00;52.40;;;;;;5115851;27;20411;-38
2021/05/22 01:01:46;;;;;;;2.00;1.35;;;22.10;52.40;;;;;;5115636;27;20116;-37
2021/05/22 01:04:19;;;;;;;2.03;1.45;;;22.00;52.40;;;;;;5116994;27;20121;-38
2021/05/22 01:06:46;;;;;;;3.57;1.07;;;22.10;52.40;;;;;;5115109;27;20047;-38
2021/05/22 01:09:20;;;;;;;1.58;1.02;;;22.00;52.40;;;;;;5129798;27;20285;-37
2021/05/22 01:11:52;;;;;;;1.92;1.17;;;22.00;52.40;;;;;;5117000;27;20055;-38
2021/05/22 01:14:34;;;;;;;3.83;1.27;;;22.10;52.40;;;;;;5115805;27;20043;-38
2021/05/22 01:17:01;;;;;;;1.73;1.30;;;22.10;52.50;;;;;;5129165;27;20099;-38
2021/05/22 01:19:44;;;;;;;1.10;0.90;;;22.00;52.40;;;;;;5116562;27;20052;-38
2021/05/22 01:22:14;;;;;;;2.03;1.20;;;22.00;52.40;;;;;;5131321;27;20043;-38
2021/05/22 01:25:03;;;;;;;1.83;1.15;;;22.00;52.40;;;;;;5098037;28;20044;-38
2021/05/22 01:27:32;;;;;;;2.28;1.10;;;22.00;52.40;;;;;;5130074;27;20388;-38
2021/05/22 01:30:00;;;;;;;4.32;1.20;;;22.00;52.30;;;;;;5114607;27;20407;-37
2021/05/22 01:32:28;;;;;;;2.25;1.13;;;22.00;52.30;;;;;;5115122;27;20483;-37
2021/05/22 01:34:57;;;;;;;1.88;1.20;;;22.00;52.30;;;;;;5115415;27;20116;-37
2021/05/22 01:37:24;;;;;;;2.55;1.02;;;22.00;52.30;;;;;;5113549;28;20040;-38
2021/05/22 01:39:51;;;;;;;1.52;1.13;;;22.00;52.30;;;;;;5127453;27;20050;-38
2021/05/22 01:42:18;;;;;;;3.88;1.33;;;22.00;52.30;;;;;;5121472;27;20043;-38
2021/05/22 01:44:50;;;;;;;1.80;1.20;;;22.00;52.30;;;;;;5114905;27;20043;-38
2021/05/22 01:47:23;;;;;;;1.33;1.00;;;22.00;52.30;;;;;;5114959;27;20054;-37
2021/05/22 01:49:51;;;;;;;1.23;0.88;;;22.00;52.30;;;;;;5115986;27;20498;-37
2021/05/22 01:52:21;;;;;;;1.65;1.15;;;22.00;52.30;;;;;;5115068;27;20047;-37
2021/05/22 01:54:49;;;;;;;1.50;1.00;;;22.00;52.30;;;;;;5123654;27;20508;-37
2021/05/22 01:57:17;;;;;;;1.58;1.02;;;22.10;52.40;;;;;;5131011;27;20039;-36
2021/05/22 01:59:45;;;;;;;4.82;1.13;;;22.00;52.30;;;;;;5131340;27;20040;-37
2021/05/22 02:02:13;;;;;;;3.25;1.10;;;22.10;52.40;;;;;;5125469;27;20044;-37
2021/05/22 02:04:44;;;;;;;2.67;0.75;;;22.10;52.40;;;;;;5114480;27;20039;-37
2021/05/22 02:07:20;;;;;;;1.70;1.10;;;22.00;52.30;;;;;;5094580;28;20035;-37
2021/05/22 02:09:49;;;;;;;1.67;1.15;;;22.00;52.30;;;;;;5119855;27;20043;-37
2021/05/22 02:12:18;;;;;;;1.58;0.82;;;22.00;52.30;;;;;;5125110;27;20082;-37
2021/05/22 02:14:47;;;;;;;1.58;1.00;;;22.10;52.40;;;;;;5116939;27;20039;-37
2021/05/22 02:17:23;;;;;;;1.33;0.88;;;22.00;52.30;;;;;;5131141;27;20051;-37
2021/05/22 02:19:53;;;;;;;1.83;1.10;;;22.00;52.30;;;;;;5126128;27;20093;-37
2021/05/22 02:22:22;;;;;;;1.52;1.10;;;22.00;52.30;;;;;;5115868;27;20039;-37
2021/05/22 02:24:55;;;;;;;1.55;0.90;;;22.00;52.20;;;;;;5131320;27;20040;-37
2021/05/22 02:27:23;;;;;;;2.15;1.13;;;22.00;52.20;;;;;;5131438;27;20449;-37
2021/05/22 02:29:52;;;;;;;1.73;1.00;;;22.00;52.20;;;;;;5110305;28;20039;-38
2021/05/22 02:32:20;;;;;;;2.15;1.33;;;22.00;52.30;;;;;;5097492;27;20051;-38
2021/05/22 02:34:52;;;;;;;1.20;0.90;;;22.10;52.40;;;;;;5115108;27;20054;-38
2021/05/22 02:37:24;;;;;;;2.60;1.15;;;22.00;52.20;;;;;;5114010;27;20043;-38
2021/05/22 02:39:54;;;;;;;1.50;0.90;;;22.00;52.20;;;;;;5112981;28;20518;-37
2021/05/22 02:42:23;;;;;;;1.38;1.05;;;22.00;52.20;;;;;;5124463;27;20043;-39
2021/05/22 02:44:52;;;;;;;1.58;1.23;;;22.00;52.20;;;;;;5114338;28;20066;-38
2021/05/22 02:47:23;;;;;;;1.60;0.90;;;22.00;52.20;;;;;;5113664;28;20499;-37
2021/05/22 02:49:50;;;;;;;1.70;1.05;;;22.00;52.20;;;;;;5129866;27;20448;-37
2021/05/22 02:52:20;;;;;;;1.45;0.88;;;22.00;52.20;;;;;;5130556;27;20098;-37
2021/05/22 02:54:50;;;;;;;1.50;1.05;;;22.00;52.20;;;;;;5130294;27;20050;-38
2021/05/22 02:57:18;;;;;;;1.58;0.80;;;22.00;52.20;;;;;;5129207;27;20100;-37
2021/05/22 02:59:49;;;;;;;1.40;1.00;;;22.00;52.20;;;;;;5128984;28;20065;-38
2021/05/22 03:02:18;;;;;;;1.60;0.98;;;22.00;52.20;;;;;;5114126;28;20047;-37
2021/05/22 03:04:47;;;;;;;1.08;0.80;;;22.00;52.20;;;;;;5114044;28;20411;-37
2021/05/22 03:07:15;;;;;;;2.47;0.80;;;22.00;52.20;;;;;;5127039;28;20055;-37
2021/05/22 03:09:42;;;;;;;1.45;0.80;;;22.00;52.20;;;;;;5129179;28;20047;-37
2021/05/22 03:12:14;;;;;;;1.38;0.70;;;22.00;52.20;;;;;;5118874;28;20112;-38
2021/05/22 03:14:41;;;;;;;1.20;0.75;;;22.00;52.20;;;;;;5125528;28;20051;-38
2021/05/22 03:17:08;;;;;;;2.15;0.88;;;22.00;52.20;;;;;;5119702;28;20063;-38
2021/05/22 03:19:36;;;;;;;1.35;0.80;;;22.00;52.20;;;;;;5123146;28;20073;-38
2021/05/22 03:22:03;;;;;;;1.33;0.80;;;22.00;52.20;;;;;;5130753;28;20043;-37
2021/05/22 03:24:31;;;;;;;1.20;0.77;;;22.00;52.20;;;;;;5130465;28;20051;-38
2021/05/22 03:26:58;;;;;;;3.05;0.85;;;22.00;52.20;;;;;;5106752;28;20444;-38
2021/05/22 03:29:25;;;;;;;1.45;0.90;;;22.00;52.20;;;;;;5113682;28;20449;-38
2021/05/22 03:31:53;;;;;;;2.10;0.82;;;22.00;52.70;;;;;;5114950;28;20066;-38
2021/05/22 03:34:20;;;;;;;1.50;0.80;;;22.00;52.10;;;;;;5113745;28;20452;-38
2021/05/22 03:36:47;;;;;;;1.20;0.90;;;22.00;52.10;;;;;;5113422;28;20407;-38
2021/05/22 03:39:14;;;;;;;1.33;0.80;;;22.00;52.10;;;;;;5115794;28;20097;-38
2021/05/22 03:41:41;;;;;;;0.63;0.47;;;22.00;52.10;;;;;;5129105;28;20047;-38
2021/05/22 03:44:08;;;;;;;1.38;0.90;;;22.00;52.10;;;;;;5129293;28;20054;-39
2021/05/22 03:46:36;;;;;;;0.70;0.55;;;22.00;52.10;;;;;;5131070;28;20090;-40
2021/05/22 03:49:03;;;;;;;2.45;0.88;;;22.00;52.00;;;;;;5113210;28;20048;-39
2021/05/22 03:51:31;;;;;;;1.15;0.70;;;22.00;52.00;;;;;;5112042;28;20431;-38
2021/05/22 03:53:58;;;;;;;1.40;0.60;;;22.00;52.00;;;;;;5111979;28;20054;-37
2021/05/22 03:56:25;;;;;;;1.10;0.70;;;22.00;52.60;;;;;;5113009;28;20571;-38
2021/05/22 03:58:53;;;;;;;1.35;0.90;;;22.00;52.00;;;;;;5129760;28;20047;-38
2021/05/22 04:01:21;;;;;;;1.63;0.90;;;22.00;52.00;;;;;;5114916;28;20043;-38
2021/05/22 04:03:48;;;;;;;1.60;0.60;;;22.00;52.00;;;;;;5127706;27;20047;-39
2021/05/22 04:06:15;;;;;;;1.92;0.73;;;22.00;52.00;;;;;;5126869;27;20040;-38
2021/05/22 04:08:42;;;;;;;0.88;0.60;;;22.00;51.90;;;;;;5116759;27;20064;-38
2021/05/22 04:11:09;;;;;;;1.17;0.77;;;22.00;51.90;;;;;;5117203;27;20047;-38
2021/05/22 04:13:37;;;;;;;1.02;0.50;;;22.00;51.90;;;;;;5115261;28;20499;-38
2021/05/22 04:16:04;;;;;;;1.05;0.65;;;22.00;52.50;;;;;;5126286;27;20051;-38
2021/05/22 04:18:31;;;;;;;1.45;0.75;;;22.00;51.90;;;;;;5133374;27;20096;-38
2021/05/22 04:20:58;;;;;;;1.35;0.80;;;22.00;51.90;;;;;;5132262;27;20046;-39
2021/05/22 04:23:26;;;;;;;0.95;0.60;;;22.00;51.90;;;;;;5126751;27;20071;-37
2021/05/22 04:25:53;;;;;;;0.98;0.63;;;22.00;51.90;;;;;;5117611;27;20048;-38
2021/05/22 04:28:20;;;;;;;1.38;0.65;;;22.00;51.90;;;;;;5119900;27;20050;-37
2021/05/22 04:30:47;;;;;;;1.48;0.63;;;22.00;51.80;;;;;;5129233;27;20039;-38
2021/05/22 04:33:14;;;;;;;0.55;0.43;;;22.00;51.80;;;;;;5117915;27;20036;-38
2021/05/22 04:35:41;;;;;;;1.60;0.90;;;22.00;51.80;;;;;;5117416;27;20112;-38
2021/05/22 04:38:09;;;;;;;1.02;0.60;;;22.00;51.80;;;;;;5117703;27;20075;-37
2021/05/22 04:40:36;;;;;;;0.65;0.50;;;22.00;51.80;;;;;;5115233;28;20423;-37
2021/05/22 04:43:04;;;;;;;1.10;0.73;;;22.00;51.70;;;;;;5133789;27;20129;-38
2021/05/22 04:45:31;;;;;;;1.17;0.73;;;22.00;51.80;;;;;;5116371;27;20092;-38
2021/05/22 04:47:58;;;;;;;1.33;0.70;;;22.00;52.30;;;;;;5133021;27;20047;-37
2021/05/22 04:50:28;;;;;;;1.75;0.50;;;22.00;51.70;;;;;;5114929;28;20051;-38
2021/05/22 04:52:55;;;;;;;1.05;0.55;;;22.00;51.70;;;;;;5114810;28;20055;-37
2021/05/22 04:55:22;;;;;;;1.92;0.80;;;22.00;51.70;;;;;;5132889;27;20073;-37
2021/05/22 04:57:49;;;;;;;1.35;0.68;;;22.00;51.60;;;;;;5116103;27;20052;-37
2021/05/22 05:00:17;;;;;;;0.63;0.43;;;22.00;51.60;;;;;;5130650;27;20447;-37
2021/05/22 05:02:45;;;;;;;1.02;0.63;;;22.00;51.50;;;;;;5117577;27;20040;-37
2021/05/22 05:05:12;;;;;;;1.02;0.52;;;22.00;51.60;;;;;;5114457;28;20044;-37
2021/05/22 05:07:41;;;;;;;0.57;0.40;;;22.00;51.50;;;;;;5126986;27;20509;-37
2021/05/22 05:10:11;;;;;;;1.33;0.70;;;22.00;51.50;;;;;;5121621;27;20410;-37
2021/05/22 05:12:38;;;;;;;0.93;0.60;;;22.00;51.50;;;;;;5126485;27;20051;-38
2021/05/22 05:15:07;;;;;;;0.63;0.50;;;22.00;51.50;;;;;;5130019;27;20047;-37
2021/05/22 05:17:35;;;;;;;0.95;0.55;;;22.00;51.50;;;;;;5123380;27;20105;-38
2021/05/22 05:20:04;;;;;;;0.85;0.43;;;22.00;51.50;;;;;;5098835;28;20101;-38
2021/05/22 05:22:31;;;;;;;0.73;0.40;;;22.00;51.50;;;;;;5116849;27;20042;-37
2021/05/22 05:24:59;;;;;;;2.10;0.50;;;22.00;51.50;;;;;;5115725;27;20044;-38
2021/05/22 05:27:26;;;;;;;1.42;0.65;;;22.00;51.50;;;;;;5116872;27;20093;-37
2021/05/22 05:29:53;;;;;;;0.73;0.50;;;22.00;51.40;;;;;;5118234;27;20494;-38
2021/05/22 05:32:20;;;;;;;0.80;0.60;;;22.00;51.40;;;;;;5129992;27;20445;-38
2021/05/22 05:34:47;;;;;;;1.27;0.60;;;22.00;51.40;;;;;;5116448;27;20055;-38
2021/05/22 05:37:14;;;;;;;0.70;0.50;;;22.00;51.40;;;;;;5115329;27;20039;-38
2021/05/22 05:39:42;;;;;;;0.75;0.50;;;22.00;51.40;;;;;;5114206;28;20380;-37
2021/05/22 05:42:10;;;;;;;0.77;0.57;;;22.00;51.40;;;;;;5122982;27;20039;-38
2021/05/22 05:44:37;;;;;;;0.73;0.52;;;22.00;51.40;;;;;;5096054;28;20059;-38
2021/05/22 05:47:05;;;;;;;0.45;0.45;;;21.90;51.30;;;;;;5115351;27;20100;-38
2021/05/22 05:49:32;;;;;;;1.67;0.40;;;22.00;51.40;;;;;;5131673;27;20047;-38
2021/05/22 05:52:00;;;;;;;1.88;0.50;;;22.00;51.30;;;;;;5113957;28;20065;-38
2021/05/22 05:54:27;;;;;;;2.20;0.73;;;22.00;51.30;;;;;;5095682;27;20054;-38
2021/05/22 05:56:54;;;;;;;0.65;0.40;;;22.00;51.30;;;;;;5115739;27;20047;-38
2021/05/22 05:59:21;;;;;;;0.60;0.45;;;22.00;51.40;;;;;;5129431;27;20120;-38
2021/05/22 06:01:48;;;;;;;0.95;0.63;;;22.00;51.30;;;;;;5116130;27;20048;-38
2021/05/22 06:04:16;;;;;;;0.82;0.60;;;22.00;51.30;;;;;;5128035;27;20140;-38
2021/05/22 06:06:43;;;;;;;0.57;0.40;;;22.00;51.30;;;;;;5118586;27;20048;-37
2021/05/22 06:09:11;;;;;;;1.35;0.40;;;22.00;51.30;;;;;;5126153;27;20410;-38
2021/05/22 06:11:38;;;;;;;0.82;0.60;;;22.00;51.30;;;;;;5121394;27;20062;-38
2021/05/22 06:14:12;;;;;;;1.25;0.60;;;22.00;51.30;;;;;;5114170;27;20047;-38
2021/05/22 06:16:40;;;;;;;2.15;0.63;;;22.00;51.30;;;;;;5112852;28;20055;-38
2021/05/22 06:19:07;;;;;;;1.60;0.60;;;22.00;51.30;;;;;;5121384;27;20510;-37
2021/05/22 06:21:37;;;;;;;0.85;0.55;;;22.00;51.30;;;;;;5123349;27;20043;-38
2021/05/22 06:24:06;;;;;;;1.77;0.40;;;22.00;51.30;;;;;;5114086;27;20074;-37
2021/05/22 06:26:33;;;;;;;1.05;0.60;;;22.00;51.30;;;;;;5112746;28;20051;-39
2021/05/22 06:29:01;;;;;;;1.25;0.50;;;22.00;51.30;;;;;;5114158;27;20126;-39
2021/05/22 06:31:28;;;;;;;0.95;0.50;;;22.00;51.30;;;;;;5115263;27;20562;-38
2021/05/22 06:33:55;;;;;;;0.73;0.50;;;22.00;51.30;;;;;;5116298;27;20050;-38
2021/05/22 06:36:23;;;;;;;0.95;0.60;;;22.00;51.30;;;;;;5130811;27;20040;-38
2021/05/22 06:38:50;;;;;;;1.48;0.60;;;22.00;51.30;;;;;;5109344;28;20510;-39
2021/05/22 06:41:18;;;;;;;0.88;0.32;;;22.00;51.30;;;;;;5113285;28;20105;-38
2021/05/22 06:43:45;;;;;;;0.55;0.50;;;22.00;51.30;;;;;;5112750;28;20510;-38
2021/05/22 06:48:40;;;;;;;0.85;0.50;;;22.00;51.30;;;;;;5096305;28;20048;-38
2021/05/22 06:51:07;;;;;;;1.15;0.50;;;22.00;51.30;;;;;;5112518;28;20101;-38
2021/05/22 06:53:34;;;;;;;0.60;0.50;;;22.00;51.30;;;;;;5113188;28;20460;-39
2021/05/22 06:56:03;;;;;;;0.88;0.52;;;22.00;51.30;;;;;;5112623;28;20410;-38
2021/05/22 06:58:30;;;;;;;0.57;0.57;;;22.00;51.30;;;;;;5112546;28;20047;-39
2021/05/22 07:00:59;;;;;;;0.98;0.30;;;22.00;51.30;;;;;;5114102;28;20077;-38
2021/05/22 07:03:27;;;;;;;0.73;0.47;;;22.00;51.30;;;;;;5126980;28;20061;-38
2021/05/22 07:05:57;;;;;;;1.25;0.60;;;22.00;51.30;;;;;;5097376;28;20035;-40
2021/05/22 07:08:24;;;;;;;0.65;0.50;;;22.00;51.30;;;;;;5112261;28;20104;-37
2021/05/22 07:10:51;;;;;;;1.23;0.60;;;22.00;51.30;;;;;;5115110;28;20055;-38
2021/05/22 07:13:18;;;;;;;0.82;0.45;;;22.00;51.90;;;;;;5114903;28;20072;-38
2021/05/22 07:15:45;;;;;;;1.50;0.70;;;22.00;51.30;;;;;;5113125;28;20480;-39
2021/05/22 07:18:17;;;;;;;1.38;0.70;;;22.00;51.30;;;;;;5114722;28;20047;-39
2021/05/22 07:20:44;;;;;;;0.40;0.32;;;22.00;51.30;;;;;;5114879;28;20487;-39
2021/05/22 07:23:11;;;;;;;0.73;0.47;;;22.00;51.30;;;;;;5112266;28;20085;-38
2021/05/22 07:25:38;;;;;;;1.20;0.50;;;22.00;51.30;;;;;;5120416;28;20070;-39
2021/05/22 07:28:07;;;;;;;0.93;0.40;;;22.00;51.90;;;;;;5124626;28;20047;-38
2021/05/22 07:30:34;;;;;;;0.88;0.55;;;22.00;51.30;;;;;;5113904;28;20066;-39
2021/05/22 07:33:01;;;;;;;2.65;0.50;;;22.00;51.20;;;;;;5095339;28;20048;-38
2021/05/22 07:35:29;;;;;;;0.60;0.50;;;22.00;51.20;;;;;;5115112;28;20051;-38
2021/05/22 07:37:56;;;;;;;0.98;0.50;;;22.00;51.20;;;;;;5128786;28;20096;-38
2021/05/22 07:40:23;;;;;;;1.35;0.52;;;22.00;51.20;;;;;;5134237;27;20096;-39
2021/05/22 07:42:50;;;;;;;0.68;0.50;;;22.00;51.20;;;;;;5132791;27;20036;-38
2021/05/22 07:45:18;;;;;;;0.75;0.57;;;22.00;51.20;;;;;;5134139;27;20483;-38
2021/05/22 07:47:46;;;;;;;0.95;0.50;;;22.00;51.20;;;;;;5135393;27;20494;-38
2021/05/22 07:50:14;;;;;;;0.47;0.47;;;22.00;51.20;;;;;;5135742;27;20047;-38
2021/05/22 07:52:41;;;;;;;0.50;0.50;;;22.00;51.20;;;;;;5133144;27;20054;-38
2021/05/22 07:55:11;;;;;;;0.60;0.50;;;22.00;51.20;;;;;;5115927;28;20051;-38
2021/05/22 07:57:38;;;;;;;0.60;0.40;;;22.00;51.20;;;;;;5134074;27;20055;-39
2021/05/22 08:00:07;;;;;;;3.00;0.50;;;22.00;51.20;;;;;;5118855;27;20054;-38
2021/05/22 08:02:36;;;;;;;0.77;0.50;;;22.00;51.20;;;;;;5115523;27;20044;-38
2021/05/22 08:05:07;;;;;;;1.38;0.60;;;22.00;51.20;;;;;;5118080;27;20556;-38
2021/05/22 08:07:35;;;;;;;0.70;0.43;;;22.00;51.20;;;;;;5117249;27;20050;-39
2021/05/22 08:10:06;;;;;;;1.88;0.57;;;22.00;51.20;;;;;;5118056;27;20054;-38
2021/05/22 08:12:34;;;;;;;0.85;0.50;;;22.00;51.20;;;;;;5118334;27;20457;-38
2021/05/22 08:15:02;;;;;;;1.73;0.68;;;22.00;51.20;;;;;;5116664;27;20070;-39
2021/05/22 08:17:30;;;;;;;0.70;0.50;;;22.00;51.20;;;;;;5116343;27;20051;-39
2021/05/22 08:19:57;;;;;;;1.35;0.68;;;22.00;51.20;;;;;;5116623;27;20048;-38
2021/05/22 08:22:24;;;;;;;1.40;0.68;;;22.00;51.20;;;;;;5115137;28;20043;-38
2021/05/22 08:24:52;;;;;;;1.20;0.35;;;22.00;51.20;;;;;;5116355;27;20074;-38
2021/05/22 08:27:21;;;;;;;0.65;0.57;;;22.00;51.10;;;;;;5122804;27;20043;-39
2021/05/22 08:29:55;;;;;;;0.90;0.60;;;22.00;51.10;;;;;;5126087;27;20075;-39
2021/05/22 08:32:23;;;;;;;0.85;0.63;;;22.00;51.10;;;;;;5123117;27;20047;-38
2021/05/22 08:34:52;;;;;;;0.82;0.50;;;22.00;51.10;;;;;;5133282;27;20039;-38
2021/05/22 08:37:20;;;;;;;0.80;0.47;;;22.10;51.20;;;;;;5128417;27;20411;-38
2021/05/22 08:39:52;;;;;;;0.60;0.50;;;22.10;51.20;;;;;;5120953;27;20055;-38
2021/05/22 08:42:25;;;;;;;0.98;0.40;;;22.10;51.20;;;;;;5129089;27;20129;-38
2021/05/22 08:44:53;;;;;;;0.70;0.50;;;22.10;51.20;;;;;;5116277;27;20086;-38
2021/05/22 08:47:21;;;;;;;1.23;0.50;;;22.10;51.20;;;;;;5119177;27;20050;-38
2021/05/22 08:49:48;;;;;;;0.45;0.40;;;22.10;51.10;;;;;;5133091;27;20060;-38
2021/05/22 08:52:20;;;;;;;0.73;0.40;;;22.10;51.10;;;;;;5132998;27;20054;-38
2021/05/22 08:54:49;;;;;;;0.90;0.50;;;22.10;51.10;;;;;;5133051;27;20153;-38
2021/05/22 08:57:17;;;;;;;0.60;0.50;;;22.10;51.10;;;;;;5117033;27;20039;-39
2021/05/22 08:59:47;;;;;;;0.75;0.45;;;22.10;51.10;;;;;;5131880;27;20055;-39
2021/05/22 09:02:23;;;;;;;0.93;0.50;;;22.10;51.10;;;;;;5132726;27;20069;-38
2021/05/22 09:05:08;;;;;;;2.25;0.38;;;22.10;51.10;;;;;;5132645;27;20100;-38
2021/05/22 09:07:47;;;;;;;0.95;0.73;;;22.10;51.10;;;;;;5112310;27;20043;-38
2021/05/22 09:10:18;;;;;;;0.82;0.50;;;22.10;51.00;;;;;;5114789;28;20044;-38
2021/05/22 09:12:48;;;;;;;0.77;0.40;;;22.10;51.00;;;;;;5116043;27;20051;-38
2021/05/22 09:15:18;;;;;;;0.80;0.50;;;22.10;51.00;;;;;;5132578;27;20039;-38
2021/05/22 09:17:49;;;;;;;0.77;0.45;;;22.10;51.00;;;;;;5096342;28;20048;-38
2021/05/22 09:20:19;;;;;;;0.90;0.60;;;22.10;51.10;;;;;;5098610;27;20054;-37
2021/05/22 09:23:03;;;;;;;0.77;0.50;;;22.10;51.30;;;;;;5096592;28;20109;-38
2021/05/22 09:25:33;;;;;;;0.82;0.60;;;22.10;50.90;;;;;;5098963;27;20051;-38
2021/05/22 09:28:01;;;;;;;1.27;0.40;;;22.10;50.90;;;;;;5132517;27;20092;-38
2021/05/22 09:30:31;;;;;;;1.10;0.50;;;22.10;50.90;;;;;;5113111;27;20496;-38
2021/05/22 09:32:58;;;;;;;0.40;0.40;;;22.10;50.90;;;;;;5115387;27;20503;-38
2021/05/22 09:35:26;;;;;;;1.13;0.50;;;22.10;50.90;;;;;;5132974;27;20494;-38
2021/05/22 09:38:01;;;;;;;1.20;0.60;;;22.20;50.90;;;;;;5132020;27;20483;-38
2021/05/22 09:40:36;;;;;;;1.25;0.50;;;22.10;50.90;;;;;;5113215;27;20130;-38
2021/05/22 09:43:09;;;;;;;0.55;0.40;;;22.10;50.80;;;;;;5113274;27;20101;-38
2021/05/22 09:45:46;;;;;;;0.63;0.52;;;22.10;50.80;;;;;;5096101;27;20040;-38
2021/05/22 09:48:19;;;;;;;1.35;0.38;;;22.10;50.70;;;;;;5113737;28;20040;-39
2021/05/22 09:50:51;;;;;;;0.77;0.40;;;22.10;50.70;;;;;;5113104;28;20097;-38
2021/05/22 09:53:35;;;;;;;1.35;0.47;;;22.10;50.70;;;;;;5115212;27;20138;-38
2021/05/22 09:56:20;;;;;;;3.97;0.47;;;22.10;50.70;;;;;;5114103;27;20051;-38
2021/05/22 09:58:53;;;;;;;1.60;0.43;;;22.10;50.70;;;;;;5096434;28;20039;-38
2021/05/22 10:01:35;;;;;;;1.40;0.43;;;22.10;50.70;;;;;;5114757;27;20444;-38
2021/05/22 10:04:21;;;;;;;0.60;0.40;;;22.10;50.70;;;;;;5115997;27;20047;-38
2021/05/22 10:06:48;;;;;;;0.90;0.40;;;22.10;51.20;;;;;;5116088;27;20050;-38
2021/05/22 10:09:19;;;;;;;1.98;0.70;;;22.10;50.60;;;;;;5130612;27;20043;-38
2021/05/22 10:12:08;;;;;;;1.45;0.45;;;22.10;50.60;;;;;;5114192;28;20051;-38
2021/05/22 10:14:45;;;;;;;1.10;0.50;;;22.10;51.10;;;;;;5131417;27;20624;-38
2021/05/22 10:17:14;;;;;;;0.63;0.40;;;22.10;50.50;;;;;;5129827;27;20051;-38
2021/05/22 10:19:41;;;;;;;0.60;0.40;;;22.10;50.60;;;;;;5127266;27;20126;-38
2021/05/22 10:22:09;;;;;;;0.45;0.32;;;22.10;50.50;;;;;;5114373;27;20048;-38
2021/05/22 10:24:37;;;;;;;0.47;0.30;;;22.10;50.50;;;;;;5112730;28;20461;-37
2021/05/22 10:27:05;;;;;;;0.98;0.38;;;22.10;50.50;;;;;;5130267;27;20046;-38
2021/05/22 10:29:35;;;;;;;1.20;0.45;;;22.10;50.50;;;;;;5095294;28;20450;-38
2021/05/22 10:32:03;;;;;;;2.08;0.60;;;22.10;50.50;;;;;;5132870;27;20129;-38
2021/05/22 10:34:37;;;;;;;0.60;0.50;;;22.20;50.60;;;;;;5113468;28;20048;-39
2021/05/22 10:37:05;;;;;;;;;;;22.10;50.40;;;;;;5131651;27;20047;-40
2021/05/22 10:39:43;;;;;;;0.88;0.40;;;22.10;50.40;;;;;;5112760;28;19923;-40
2021/05/22 10:42:22;;;;;;;1.08;0.40;;;22.10;50.40;;;;;;5123627;27;20039;-38
2021/05/22 10:44:50;;;;;;;0.63;0.43;;;22.10;50.40;;;;;;5113613;27;20043;-38
2021/05/22 10:47:18;;;;;;;0.47;0.40;;;22.10;50.40;;;;;;5115091;27;20472;-38
2021/05/22 10:50:01;;;;;;;0.95;0.40;;;22.20;50.50;;;;;;5112590;28;20566;-38
2021/05/22 10:52:31;;;;;;;1.20;0.60;;;22.10;50.40;;;;;;5111802;28;20039;-38
2021/05/22 10:55:10;;;;;;;1.27;0.50;;;22.10;50.40;;;;;;5113062;28;20050;-38
2021/05/22 10:57:46;;;;;;;0.98;0.40;;;22.20;50.50;;;;;;5113075;28;20097;-38
2021/05/22 11:00:17;;;;;;;2.88;0.73;;;22.10;50.30;;;;;;5131081;27;20043;-39
2021/05/22 11:02:47;;;;;;;0.82;0.40;;;22.10;50.40;;;;;;5113892;28;20044;-38
2021/05/22 11:05:24;;;;;;;0.77;0.47;;;22.20;50.50;;;;;;5114372;28;20043;-39
2021/05/22 11:08:03;;;;;;;0.90;0.40;;;22.10;50.40;;;;;;5129903;28;20050;-39
2021/05/22 11:10:44;;;;;;;1.02;0.40;;;22.10;50.30;;;;;;5112172;28;20096;-39
2021/05/22 11:13:31;;;;;;;1.58;0.60;;;22.20;50.40;;;;;;5095327;28;20051;-38
2021/05/22 11:16:05;;;;;;;1.30;0.50;;;22.10;50.30;;;;;;5101495;27;20077;-38
2021/05/22 11:18:32;;;;;;;;;;;22.20;50.40;;;;;;5133138;27;20444;-39
2021/05/22 11:21:18;;;;;;;0.85;0.40;;;22.10;50.30;;;;;;5117624;27;19919;-38
2021/05/22 11:23:58;;;;;;;1.13;0.50;;;22.20;50.40;;;;;;5116471;28;20083;-38
2021/05/22 11:26:48;;;;;;;0.63;0.40;;;22.20;50.40;;;;;;5119909;27;20048;-38
2021/05/22 11:29:17;;;;;;;1.13;0.60;;;22.20;50.40;;;;;;5129577;27;20039;-38
2021/05/22 11:31:45;;;;;;;0.93;0.45;;;22.10;50.30;;;;;;5121844;27;20047;-38
2021/05/22 11:34:38;;;;;;;1.42;0.50;;;22.20;50.40;;;;;;5134360;27;20054;-38
2021/05/22 11:37:11;;;;;;;1.45;0.63;;;22.10;50.30;;;;;;5131639;27;20468;-37
2021/05/22 11:39:46;;;;;;;0.95;0.40;;;22.20;50.40;;;;;;5128784;27;20055;-38
2021/05/22 11:42:35;;;;;;;1.08;0.60;;;22.20;50.30;;;;;;5125401;27;20044;-38
2021/05/22 11:45:06;;;;;;;0.60;0.60;;;22.20;50.30;;;;;;5108331;28;20100;-38
2021/05/22 11:47:36;;;;;;;1.20;0.50;;;22.20;50.30;;;;;;5118649;27;20051;-38
2021/05/22 11:50:22;;;;;;;2.28;0.35;;;22.20;50.30;;;;;;5117565;27;20453;-38
2021/05/22 11:52:50;;;;;;;1.48;0.50;;;22.20;50.20;;;;;;5118363;27;20048;-38
2021/05/22 11:55:21;;;;;;;1.80;0.50;;;22.20;50.20;;;;;;5123599;27;20035;-38
2021/05/22 11:58:05;;;;;;;1.05;0.47;;;22.20;50.20;;;;;;5126705;27;20047;-38
2021/05/22 12:00:32;;;;;;;0.98;0.40;;;22.20;50.20;;;;;;5126015;27;20047;-38
2021/05/22 12:02:59;;;;;;;1.48;0.40;;;22.20;50.10;;;;;;5124587;27;20049;-38
2021/05/22 12:05:43;;;;;;;0.85;0.40;;;22.20;50.10;;;;;;5122314;27;20047;-38
2021/05/22 12:08:27;;;;;;;0.98;0.70;;;22.20;50.10;;;;;;5107313;28;20043;-38
2021/05/22 12:10:55;;;;;;;1.02;0.50;;;22.20;50.10;;;;;;5127028;27;20050;-38
2021/05/22 12:13:24;;;;;;;1.40;0.50;;;22.20;50.10;;;;;;5134160;27;20095;-38
2021/05/22 12:15:53;;;;;;;1.02;0.52;;;22.20;50.10;;;;;;5124115;27;20059;-38
2021/05/22 12:18:20;;;;;;;1.42;0.50;;;22.20;50.10;;;;;;5122957;27;20039;-38
2021/05/22 12:20:54;;;;;;;0.98;0.40;;;22.20;50.00;;;;;;5125501;27;20044;-38
2021/05/22 12:23:27;;;;;;;1.00;0.40;;;22.20;50.00;;;;;;5115262;28;20059;-38
2021/05/22 12:25:56;;;;;;;0.95;0.60;;;22.20;50.00;;;;;;5116186;27;20055;-38
2021/05/22 12:28:24;;;;;;;0.73;0.40;;;22.20;50.00;;;;;;5116364;27;20043;-38
2021/05/22 12:30:53;;;;;;;0.95;0.30;;;22.20;50.00;;;;;;5097318;28;20399;-38
2021/05/22 12:33:20;;;;;;;0.80;0.40;;;22.20;50.00;;;;;;5116391;27;20051;-38
2021/05/22 12:36:04;;;;;;;1.85;0.68;;;22.20;50.00;;;;;;5117631;27;20044;-38
2021/05/22 12:38:45;;;;;;;1.30;0.50;;;22.20;50.00;;;;;;5133741;27;20044;-38
2021/05/22 12:41:14;;;;;;;0.82;0.50;;;22.20;49.90;;;;;;5120411;27;20047;-38
2021/05/22 12:43:52;;;;;;;1.98;0.50;;;22.20;49.80;;;;;;5129360;27;20036;-38
2021/05/22 12:46:33;;;;;;;1.45;0.70;;;22.20;49.80;;;;;;5121842;27;20043;-38
2021/05/22 12:49:13;;;;;;;1.08;0.50;;;22.20;49.80;;;;;;5133031;27;20092;-38
2021/05/22 12:51:45;;;;;;;1.25;0.70;;;22.20;49.70;;;;;;5125476;27;20052;-38
2021/05/22 12:54:31;;;;;;;0.95;0.50;;;22.20;49.70;;;;;;5123287;27;20493;-38
2021/05/22 12:57:00;;;;;;;1.20;0.50;;;22.20;49.70;;;;;;5123083;27;20051;-38
2021/05/22 12:59:28;;;;;;;2.35;0.63;;;22.20;49.70;;;;;;5123919;27;20051;-37
2021/05/22 13:02:25;;;;;;;1.27;0.52;;;22.20;49.80;;;;;;5133077;27;20066;-38
2021/05/22 13:05:06;;;;;;;0.60;0.40;;;22.20;49.70;;;;;;5130234;27;20043;-38